sensor_id;sensor_type;location;lat;lon;timestamp;pressure;altitude;pressure_sealevel;temperature
58102;BMP280;52034;51.926;6.320;2023-04-06T00:00:41;101771.97;;;3.78
58102;BMP280;52034;51.926;6.320;2023-04-06T00:01:42;101763.88;;;3.73
58102;BMP280;52034;51.926;6.320;2023-04-06T00:02:42;101769.44;;;3.73
58102;BMP280;52034;51.926;6.320;2023-04-06T00:03:42;101762.84;;;3.68
58102;BMP280;52034;51.926;6.320;2023-04-06T00:04:44;101763.06;;;3.63
58102;BMP280;52034;51.926;6.320;2023-04-06T00:05:44;101758.78;;;3.62
58102;BMP280;52034;51.926;6.320;2023-04-06T00:06:45;101761.00;;;3.63
58102;BMP280;52034;51.926;6.320;2023-04-06T00:07:45;101755.44;;;3.63
58102;BMP280;52034;51.926;6.320;2023-04-06T00:08:45;101757.72;;;3.57
58102;BMP280;52034;51.926;6.320;2023-04-06T00:09:46;101763.78;;;3.63
58102;BMP280;52034;51.926;6.320;2023-04-06T00:10:46;101748.09;;;3.58
58102;BMP280;52034;51.926;6.320;2023-04-06T00:11:46;101747.53;;;3.60
58102;BMP280;52034;51.926;6.320;2023-04-06T00:12:46;101762.47;;;3.64
58102;BMP280;52034;51.926;6.320;2023-04-06T00:13:47;101746.03;;;3.59
58102;BMP280;52034;51.926;6.320;2023-04-06T00:14:47;101753.41;;;3.64
58102;BMP280;52034;51.926;6.320;2023-04-06T00:15:47;101744.00;;;3.59
58102;BMP280;52034;51.926;6.320;2023-04-06T00:16:48;101752.91;;;3.58
58102;BMP280;52034;51.926;6.320;2023-04-06T00:17:48;101749.06;;;3.53
58102;BMP280;52034;51.926;6.320;2023-04-06T00:18:48;101743.50;;;3.53
58102;BMP280;52034;51.926;6.320;2023-04-06T00:19:49;101752.06;;;3.48
58102;BMP280;52034;51.926;6.320;2023-04-06T00:20:49;101750.13;;;3.41
58102;BMP280;52034;51.926;6.320;2023-04-06T00:21:51;101741.78;;;3.41
58102;BMP280;52034;51.926;6.320;2023-04-06T00:22:51;101742.16;;;3.37
58102;BMP280;52034;51.926;6.320;2023-04-06T00:23:51;101733.31;;;3.31
58102;BMP280;52034;51.926;6.320;2023-04-06T00:24:52;101732.19;;;3.34
58102;BMP280;52034;51.926;6.320;2023-04-06T00:25:52;101733.69;;;3.35
58102;BMP280;52034;51.926;6.320;2023-04-06T00:26:52;101737.53;;;3.40
58102;BMP280;52034;51.926;6.320;2023-04-06T00:27:52;101733.47;;;3.41
58102;BMP280;52034;51.926;6.320;2023-04-06T00:28:53;101734.19;;;3.41
58102;BMP280;52034;51.926;6.320;2023-04-06T00:29:53;101737.78;;;3.51
58102;BMP280;52034;51.926;6.320;2023-04-06T00:30:53;101735.59;;;3.50
58102;BMP280;52034;51.926;6.320;2023-04-06T00:31:55;101724.69;;;3.44
58102;BMP280;52034;51.926;6.320;2023-04-06T00:32:55;101736.38;;;3.43
58102;BMP280;52034;51.926;6.320;2023-04-06T00:33:57;101725.69;;;3.39
58102;BMP280;52034;51.926;6.320;2023-04-06T00:34:58;101720.53;;;3.36
58102;BMP280;52034;51.926;6.320;2023-04-06T00:35:58;101723.47;;;3.38
58102;BMP280;52034;51.926;6.320;2023-04-06T00:36:59;101725.69;;;3.39
58102;BMP280;52034;51.926;6.320;2023-04-06T00:37:59;101718.56;;;3.29
58102;BMP280;52034;51.926;6.320;2023-04-06T00:39:00;101716.34;;;3.27
58102;BMP280;52034;51.926;6.320;2023-04-06T00:40:00;101716.19;;;3.25
58102;BMP280;52034;51.926;6.320;2023-04-06T00:41:03;101715.09;;;3.21
58102;BMP280;52034;51.926;6.320;2023-04-06T00:42:11;101729.47;;;3.27
58102;BMP280;52034;51.926;6.320;2023-04-06T00:43:13;101722.41;;;3.33
58102;BMP280;52034;51.926;6.320;2023-04-06T00:44:13;101718.31;;;3.34
58102;BMP280;52034;51.926;6.320;2023-04-06T00:45:14;101720.28;;;3.41
58102;BMP280;52034;51.926;6.320;2023-04-06T00:46:14;101720.78;;;3.47
58102;BMP280;52034;51.926;6.320;2023-04-06T00:47:15;101717.28;;;3.47
58102;BMP280;52034;51.926;6.320;2023-04-06T00:48:16;101717.44;;;3.49
58102;BMP280;52034;51.926;6.320;2023-04-06T00:49:16;101726.84;;;3.53
58102;BMP280;52034;51.926;6.320;2023-04-06T00:50:17;101729.84;;;3.48
58102;BMP280;52034;51.926;6.320;2023-04-06T00:51:17;101720.16;;;3.39
58102;BMP280;52034;51.926;6.320;2023-04-06T00:52:18;101726.25;;;3.38
58102;BMP280;52034;51.926;6.320;2023-04-06T00:53:20;101719.28;;;3.29
58102;BMP280;52034;51.926;6.320;2023-04-06T00:54:22;101718.97;;;3.25
58102;BMP280;52034;51.926;6.320;2023-04-06T00:55:22;101712.66;;;3.25
58102;BMP280;52034;51.926;6.320;2023-04-06T00:56:22;101709.56;;;3.21
58102;BMP280;52034;51.926;6.320;2023-04-06T00:57:26;101708.50;;;3.16
58102;BMP280;52034;51.926;6.320;2023-04-06T00:58:29;101709.78;;;3.15
58102;BMP280;52034;51.926;6.320;2023-04-06T00:59:37;101712.91;;;3.19
58102;BMP280;52034;51.926;6.320;2023-04-06T01:00:40;101710.34;;;3.14
58102;BMP280;52034;51.926;6.320;2023-04-06T01:01:42;101705.97;;;3.11
58102;BMP280;52034;51.926;6.320;2023-04-06T01:02:57;101700.28;;;3.01
58102;BMP280;52034;51.926;6.320;2023-04-06T01:04:04;101695.28;;;2.99
58102;BMP280;52034;51.926;6.320;2023-04-06T01:05:11;101698.59;;;3.06
58102;BMP280;52034;51.926;6.320;2023-04-06T01:06:21;101695.25;;;3.07
58102;BMP280;52034;51.926;6.320;2023-04-06T01:07:31;101690.63;;;3.02
58102;BMP280;52034;51.926;6.320;2023-04-06T01:08:39;101694.16;;;3.03
58102;BMP280;52034;51.926;6.320;2023-04-06T01:09:59;101692.28;;;3.05
58102;BMP280;52034;51.926;6.320;2023-04-06T01:11:02;101693.03;;;3.06
58102;BMP280;52034;51.926;6.320;2023-04-06T01:12:03;101691.38;;;3.03
58102;BMP280;52034;51.926;6.320;2023-04-06T01:13:05;101693.81;;;2.98
58102;BMP280;52034;51.926;6.320;2023-04-06T01:14:23;101693.41;;;3.02
58102;BMP280;52034;51.926;6.320;2023-04-06T01:15:29;101685.44;;;3.06
58102;BMP280;52034;51.926;6.320;2023-04-06T01:16:30;101684.72;;;3.06
58102;BMP280;52034;51.926;6.320;2023-04-06T01:17:37;101685.09;;;3.02
58102;BMP280;52034;51.926;6.320;2023-04-06T01:18:44;101679.38;;;3.00
58102;BMP280;52034;51.926;6.320;2023-04-06T01:19:49;101684.75;;;2.98
58102;BMP280;52034;51.926;6.320;2023-04-06T01:20:57;101685.53;;;2.91
58102;BMP280;52034;51.926;6.320;2023-04-06T01:21:59;101686.28;;;2.91
58102;BMP280;52034;51.926;6.320;2023-04-06T01:23:05;101679.13;;;2.88
58102;BMP280;52034;51.926;6.320;2023-04-06T01:24:07;101683.09;;;2.95
58102;BMP280;52034;51.926;6.320;2023-04-06T01:25:31;101675.25;;;2.84
58102;BMP280;52034;51.926;6.320;2023-04-06T01:26:39;101683.22;;;2.88
58102;BMP280;52034;51.926;6.320;2023-04-06T01:27:42;101682.28;;;2.85
58102;BMP280;52034;51.926;6.320;2023-04-06T01:28:45;101686.03;;;2.80
58102;BMP280;52034;51.926;6.320;2023-04-06T01:29:56;101675.09;;;2.82
58102;BMP280;52034;51.926;6.320;2023-04-06T01:31:14;101675.59;;;2.88
58102;BMP280;52034;51.926;6.320;2023-04-06T01:32:19;101673.25;;;2.84
58102;BMP280;52034;51.926;6.320;2023-04-06T01:33:23;101676.16;;;2.86
58102;BMP280;52034;51.926;6.320;2023-04-06T01:34:41;101682.28;;;2.85
58102;BMP280;52034;51.926;6.320;2023-04-06T01:35:41;101665.34;;;2.73
58102;BMP280;52034;51.926;6.320;2023-04-06T01:36:50;101675.63;;;2.80
58102;BMP280;52034;51.926;6.320;2023-04-06T01:37:57;101672.88;;;2.80
58102;BMP280;52034;51.926;6.320;2023-04-06T01:39:03;101661.47;;;2.69
58102;BMP280;52034;51.926;6.320;2023-04-06T01:40:09;101657.78;;;2.74
58102;BMP280;52034;51.926;6.320;2023-04-06T01:41:18;101662.56;;;2.73
58102;BMP280;52034;51.926;6.320;2023-04-06T01:42:22;101655.56;;;2.72
58102;BMP280;52034;51.926;6.320;2023-04-06T01:43:23;101662.00;;;2.75
58102;BMP280;52034;51.926;6.320;2023-04-06T01:44:43;101662.19;;;2.77
58102;BMP280;52034;51.926;6.320;2023-04-06T01:45:47;101662.00;;;2.75
58102;BMP280;52034;51.926;6.320;2023-04-06T01:46:52;101665.88;;;2.79
58102;BMP280;52034;51.926;6.320;2023-04-06T01:47:53;101655.00;;;2.74
58102;BMP280;52034;51.926;6.320;2023-04-06T01:48:56;101657.78;;;2.74
58102;BMP280;52034;51.926;6.320;2023-04-06T01:50:11;101652.59;;;2.70
58102;BMP280;52034;51.926;6.320;2023-04-06T01:51:16;101656.34;;;2.65
58102;BMP280;52034;51.926;6.320;2023-04-06T01:52:23;101654.84;;;2.64
58102;BMP280;52034;51.926;6.320;2023-04-06T01:53:26;101663.34;;;2.66
58102;BMP280;52034;51.926;6.320;2023-04-06T01:54:33;101657.47;;;2.62
58102;BMP280;52034;51.926;6.320;2023-04-06T01:55:49;101650.31;;;2.59
58102;BMP280;52034;51.926;6.320;2023-04-06T01:57:10;101649.03;;;2.53
58102;BMP280;52034;51.926;6.320;2023-04-06T01:58:33;101655.84;;;2.59
58102;BMP280;52034;51.926;6.320;2023-04-06T01:59:34;101649.22;;;2.55
58102;BMP280;52034;51.926;6.320;2023-04-06T02:00:40;101643.47;;;2.53
58102;BMP280;52034;51.926;6.320;2023-04-06T02:01:40;101647.22;;;2.48
58102;BMP280;52034;51.926;6.320;2023-04-06T02:02:40;101652.19;;;2.49
58102;BMP280;52034;51.926;6.320;2023-04-06T02:03:47;101646.09;;;2.51
58102;BMP280;52034;51.926;6.320;2023-04-06T02:04:47;101646.09;;;2.51
58102;BMP280;52034;51.926;6.320;2023-04-06T02:05:50;101655.31;;;2.53
58102;BMP280;52034;51.926;6.320;2023-04-06T02:06:57;101654.94;;;2.57
58102;BMP280;52034;51.926;6.320;2023-04-06T02:07:59;101648.84;;;2.58
58102;BMP280;52034;51.926;6.320;2023-04-06T02:09:06;101647.53;;;2.59
58102;BMP280;52034;51.926;6.320;2023-04-06T02:10:11;101656.91;;;2.64
58102;BMP280;52034;51.926;6.320;2023-04-06T02:11:12;101650.31;;;2.59
58102;BMP280;52034;51.926;6.320;2023-04-06T02:12:22;101645.63;;;2.62
58102;BMP280;52034;51.926;6.320;2023-04-06T02:13:23;101636.81;;;2.56
58102;BMP280;52034;51.926;6.320;2023-04-06T02:14:26;101648.28;;;2.60
58102;BMP280;52034;51.926;6.320;2023-04-06T02:15:30;101642.34;;;2.56
58102;BMP280;52034;51.926;6.320;2023-04-06T02:16:30;101654.19;;;2.56
58102;BMP280;52034;51.926;6.320;2023-04-06T02:17:31;101639.25;;;2.52
58102;BMP280;52034;51.926;6.320;2023-04-06T02:18:31;101633.88;;;2.54
58102;BMP280;52034;51.926;6.320;2023-04-06T02:19:32;101643.84;;;2.57
58102;BMP280;52034;51.926;6.320;2023-04-06T02:20:32;101634.59;;;2.54
58102;BMP280;52034;51.926;6.320;2023-04-06T02:21:32;101638.63;;;2.61
58102;BMP280;52034;51.926;6.320;2023-04-06T02:22:33;101630.00;;;2.57
58102;BMP280;52034;51.926;6.320;2023-04-06T02:23:33;101629.63;;;2.53
58102;BMP280;52034;51.926;6.320;2023-04-06T02:24:33;101640.09;;;2.62
58102;BMP280;52034;51.926;6.320;2023-04-06T02:25:34;101638.88;;;2.55
58102;BMP280;52034;51.926;6.320;2023-04-06T02:26:34;101632.91;;;2.59
58102;BMP280;52034;51.926;6.320;2023-04-06T02:27:35;101641.09;;;2.57
58102;BMP280;52034;51.926;6.320;2023-04-06T02:28:36;101631.50;;;2.50
58102;BMP280;52034;51.926;6.320;2023-04-06T02:29:36;101633.72;;;2.52
58102;BMP280;52034;51.926;6.320;2023-04-06T02:30:38;101636.31;;;2.50
58102;BMP280;52034;51.926;6.320;2023-04-06T02:31:38;101639.59;;;2.56
58102;BMP280;52034;51.926;6.320;2023-04-06T02:32:40;101638.34;;;2.49
58102;BMP280;52034;51.926;6.320;2023-04-06T02:33:41;101640.38;;;2.49
58102;BMP280;52034;51.926;6.320;2023-04-06T02:34:41;101628.94;;;2.45
58102;BMP280;52034;51.926;6.320;2023-04-06T02:35:44;101631.16;;;2.46
58102;BMP280;52034;51.926;6.320;2023-04-06T02:36:45;101633.53;;;2.50
58102;BMP280;52034;51.926;6.320;2023-04-06T02:37:45;101633.38;;;2.48
58102;BMP280;52034;51.926;6.320;2023-04-06T02:38:45;101631.34;;;2.48
58102;BMP280;52034;51.926;6.320;2023-04-06T02:39:46;101627.06;;;2.47
58102;BMP280;52034;51.926;6.320;2023-04-06T02:40:46;101631.50;;;2.50
58102;BMP280;52034;51.926;6.320;2023-04-06T02:41:56;101633.53;;;2.50
58102;BMP280;52034;51.926;6.320;2023-04-06T02:42:58;101636.13;;;2.48
58102;BMP280;52034;51.926;6.320;2023-04-06T02:44:05;101636.66;;;2.54
58102;BMP280;52034;51.926;6.320;2023-04-06T02:45:13;101632.41;;;2.53
58102;BMP280;52034;51.926;6.320;2023-04-06T02:46:17;101628.56;;;2.48
58102;BMP280;52034;51.926;6.320;2023-04-06T02:47:18;101629.84;;;2.47
58102;BMP280;52034;51.926;6.320;2023-04-06T02:48:21;101630.63;;;2.40
58102;BMP280;52034;51.926;6.320;2023-04-06T02:49:22;101628.41;;;2.39
58102;BMP280;52034;51.926;6.320;2023-04-06T02:50:23;101629.94;;;2.32
58102;BMP280;52034;51.926;6.320;2023-04-06T02:51:31;101625.13;;;2.33
58102;BMP280;52034;51.926;6.320;2023-04-06T02:52:41;101624.56;;;2.34
58102;BMP280;52034;51.926;6.320;2023-04-06T02:53:42;101627.31;;;2.34
58102;BMP280;52034;51.926;6.320;2023-04-06T02:54:43;101633.44;;;2.33
58102;BMP280;52034;51.926;6.320;2023-04-06T02:55:43;101629.00;;;2.30
58102;BMP280;52034;51.926;6.320;2023-04-06T02:56:44;101636.03;;;2.31
58102;BMP280;52034;51.926;6.320;2023-04-06T02:57:44;101631.63;;;2.28
58102;BMP280;52034;51.926;6.320;2023-04-06T02:58:45;101621.50;;;2.23
58102;BMP280;52034;51.926;6.320;2023-04-06T02:59:45;101624.84;;;2.21
58102;BMP280;52034;51.926;6.320;2023-04-06T03:00:57;101613.41;;;2.17
58102;BMP280;52034;51.926;6.320;2023-04-06T03:01:57;101620.25;;;2.16
58102;BMP280;52034;51.926;6.320;2023-04-06T03:02:58;101616.72;;;2.16
58102;BMP280;52034;51.926;6.320;2023-04-06T03:03:59;101622.63;;;2.20
58102;BMP280;52034;51.926;6.320;2023-04-06T03:05:02;101616.16;;;2.17
58102;BMP280;52034;51.926;6.320;2023-04-06T03:06:08;101613.63;;;2.12
58102;BMP280;52034;51.926;6.320;2023-04-06T03:07:08;101615.25;;;2.22
58102;BMP280;52034;51.926;6.320;2023-04-06T03:08:11;101615.81;;;2.21
58102;BMP280;52034;51.926;6.320;2023-04-06T03:09:16;101610.72;;;2.27
58102;BMP280;52034;51.926;6.320;2023-04-06T03:10:17;101615.59;;;2.26
58102;BMP280;52034;51.926;6.320;2023-04-06T03:11:20;101613.38;;;2.25
58102;BMP280;52034;51.926;6.320;2023-04-06T03:12:22;101613.03;;;2.21
58102;BMP280;52034;51.926;6.320;2023-04-06T03:13:42;101606.56;;;2.18
58102;BMP280;52034;51.926;6.320;2023-04-06T03:14:44;101611.53;;;2.20
58102;BMP280;52034;51.926;6.320;2023-04-06T03:15:44;101604.19;;;2.15
58102;BMP280;52034;51.926;6.320;2023-04-06T03:16:49;101612.28;;;2.20
58102;BMP280;52034;51.926;6.320;2023-04-06T03:17:53;101607.31;;;2.19
58102;BMP280;52034;51.926;6.320;2023-04-06T03:19:08;101607.09;;;2.24
58102;BMP280;52034;51.926;6.320;2023-04-06T03:20:09;101609.31;;;2.18
58102;BMP280;52034;51.926;6.320;2023-04-06T03:21:10;101611.19;;;2.16
58102;BMP280;52034;51.926;6.320;2023-04-06T03:22:21;101603.84;;;2.11
58102;BMP280;52034;51.926;6.320;2023-04-06T03:23:22;101601.63;;;2.09
58102;BMP280;52034;51.926;6.320;2023-04-06T03:24:27;101598.88;;;2.09
58102;BMP280;52034;51.926;6.320;2023-04-06T03:25:27;101595.56;;;2.03
58102;BMP280;52034;51.926;6.320;2023-04-06T03:26:32;101596.03;;;2.17
58102;BMP280;52034;51.926;6.320;2023-04-06T03:27:38;101593.66;;;2.13
58102;BMP280;52034;51.926;6.320;2023-04-06T03:28:39;101597.56;;;2.10
58102;BMP280;52034;51.926;6.320;2023-04-06T03:29:41;101600.66;;;2.14
58102;BMP280;52034;51.926;6.320;2023-04-06T03:30:45;101592.75;;;2.11
58102;BMP280;52034;51.926;6.320;2023-04-06T03:31:47;101592.38;;;2.14
58102;BMP280;52034;51.926;6.320;2023-04-06T03:32:59;101599.03;;;2.11
58102;BMP280;52034;51.926;6.320;2023-04-06T03:34:02;101599.41;;;2.08
58102;BMP280;52034;51.926;6.320;2023-04-06T03:35:07;101590.22;;;1.98
58102;BMP280;52034;51.926;6.320;2023-04-06T03:36:08;101596.88;;;1.95
58102;BMP280;52034;51.926;6.320;2023-04-06T03:37:12;101593.59;;;1.89
58102;BMP280;52034;51.926;6.320;2023-04-06T03:38:20;101597.63;;;1.88
58102;BMP280;52034;51.926;6.320;2023-04-06T03:39:20;101593.06;;;1.83
58102;BMP280;52034;51.926;6.320;2023-04-06T03:40:20;101585.53;;;1.83
58102;BMP280;52034;51.926;6.320;2023-04-06T03:41:21;101591.78;;;1.84
58102;BMP280;52034;51.926;6.320;2023-04-06T03:42:29;101594.16;;;1.87
58102;BMP280;52034;51.926;6.320;2023-04-06T03:43:35;101584.03;;;1.82
58102;BMP280;52034;51.926;6.320;2023-04-06T03:44:36;101586.06;;;1.82
58102;BMP280;52034;51.926;6.320;2023-04-06T03:45:37;101585.88;;;1.80
58102;BMP280;52034;51.926;6.320;2023-04-06T03:46:38;101580.34;;;1.80
58102;BMP280;52034;51.926;6.320;2023-04-06T03:47:39;101591.44;;;1.80
58102;BMP280;52034;51.926;6.320;2023-04-06T03:48:41;101591.63;;;1.82
58102;BMP280;52034;51.926;6.320;2023-04-06T03:49:41;101584.03;;;1.82
58102;BMP280;52034;51.926;6.320;2023-04-06T03:50:45;101584.19;;;1.84
58102;BMP280;52034;51.926;6.320;2023-04-06T03:51:45;101581.41;;;1.84
58102;BMP280;52034;51.926;6.320;2023-04-06T03:52:46;101585.53;;;1.83
58102;BMP280;52034;51.926;6.320;2023-04-06T03:53:46;101588.84;;;1.82
58102;BMP280;52034;51.926;6.320;2023-04-06T03:54:46;101588.09;;;1.81
58102;BMP280;52034;51.926;6.320;2023-04-06T03:55:47;101581.81;;;1.81
58102;BMP280;52034;51.926;6.320;2023-04-06T03:56:47;101588.66;;;1.80
58102;BMP280;52034;51.926;6.320;2023-04-06T03:57:48;101588.47;;;1.78
58102;BMP280;52034;51.926;6.320;2023-04-06T03:58:48;101584.59;;;1.81
58102;BMP280;52034;51.926;6.320;2023-04-06T03:59:54;101588.47;;;1.78
58102;BMP280;52034;51.926;6.320;2023-04-06T04:00:54;101593.28;;;1.77
58102;BMP280;52034;51.926;6.320;2023-04-06T04:01:55;101584.06;;;1.75
58102;BMP280;52034;51.926;6.320;2023-04-06T04:02:55;101586.09;;;1.74
58102;BMP280;52034;51.926;6.320;2023-04-06T04:03:55;101585.75;;;1.63
58102;BMP280;52034;51.926;6.320;2023-04-06T04:04:56;101594.22;;;1.72
58102;BMP280;52034;51.926;6.320;2023-04-06T04:05:56;101584.81;;;1.68
58102;BMP280;52034;51.926;6.320;2023-04-06T04:06:57;101582.22;;;1.70
58102;BMP280;52034;51.926;6.320;2023-04-06T04:07:58;101592.38;;;1.75
58102;BMP280;52034;51.926;6.320;2023-04-06T04:09:00;101582.22;;;1.70
58102;BMP280;52034;51.926;6.320;2023-04-06T04:10:02;101590.31;;;1.75
58102;BMP280;52034;51.926;6.320;2023-04-06T04:11:03;101580.34;;;1.80
58102;BMP280;52034;51.926;6.320;2023-04-06T04:12:04;101595.09;;;1.82
58102;BMP280;52034;51.926;6.320;2023-04-06T04:13:05;101582.75;;;1.83
58102;BMP280;52034;51.926;6.320;2023-04-06T04:14:06;101592.34;;;1.82
58102;BMP280;52034;51.926;6.320;2023-04-06T04:15:06;101590.13;;;1.81
58102;BMP280;52034;51.926;6.320;2023-04-06T04:16:07;101587.00;;;1.77
58102;BMP280;52034;51.926;6.320;2023-04-06T04:17:07;101578.53;;;1.75
58102;BMP280;52034;51.926;6.320;2023-04-06T04:18:07;101582.59;;;1.74
58102;BMP280;52034;51.926;6.320;2023-04-06T04:19:08;101586.84;;;1.75
58102;BMP280;52034;51.926;6.320;2023-04-06T04:20:08;101586.84;;;1.75
58102;BMP280;52034;51.926;6.320;2023-04-06T04:21:09;101585.88;;;1.80
58102;BMP280;52034;51.926;6.320;2023-04-06T04:22:09;101584.59;;;1.81
58102;BMP280;52034;51.926;6.320;2023-04-06T04:23:13;101589.00;;;1.84
58102;BMP280;52034;51.926;6.320;2023-04-06T04:24:13;101587.53;;;1.83
58102;BMP280;52034;51.926;6.320;2023-04-06T04:25:14;101583.31;;;1.82
58102;BMP280;52034;51.926;6.320;2023-04-06T04:26:19;101589.91;;;1.86
58102;BMP280;52034;51.926;6.320;2023-04-06T04:27:20;101582.56;;;1.81
58102;BMP280;52034;51.926;6.320;2023-04-06T04:28:23;101591.63;;;1.82
58102;BMP280;52034;51.926;6.320;2023-04-06T04:29:23;101587.75;;;1.77
58102;BMP280;52034;51.926;6.320;2023-04-06T04:30:25;101586.66;;;1.73
58102;BMP280;52034;51.926;6.320;2023-04-06T04:31:25;101582.59;;;1.74
58102;BMP280;52034;51.926;6.320;2023-04-06T04:32:30;101577.59;;;1.72
58102;BMP280;52034;51.926;6.320;2023-04-06T04:33:33;101587.22;;;1.71
58102;BMP280;52034;51.926;6.320;2023-04-06T04:34:35;101570.59;;;1.71
58102;BMP280;52034;51.926;6.320;2023-04-06T04:35:38;101586.09;;;1.74
58102;BMP280;52034;51.926;6.320;2023-04-06T04:36:39;101577.94;;;1.76
58102;BMP280;52034;51.926;6.320;2023-04-06T04:37:43;101579.97;;;1.83
58102;BMP280;52034;51.926;6.320;2023-04-06T04:38:44;101582.88;;;1.85
58102;BMP280;52034;51.926;6.320;2023-04-06T04:39:45;101579.97;;;1.83
58102;BMP280;52034;51.926;6.320;2023-04-06T04:40:45;101580.66;;;1.91
58102;BMP280;52034;51.926;6.320;2023-04-06T04:41:46;101579.53;;;1.94
58102;BMP280;52034;51.926;6.320;2023-04-06T04:42:46;101577.50;;;1.95
58102;BMP280;52034;51.926;6.320;2023-04-06T04:43:57;101586.94;;;1.92
58102;BMP280;52034;51.926;6.320;2023-04-06T04:44:59;101579.53;;;1.94
58102;BMP280;52034;51.926;6.320;2023-04-06T04:46:13;101581.72;;;2.03
58102;BMP280;52034;51.926;6.320;2023-04-06T04:47:16;101580.06;;;2.00
58102;BMP280;52034;51.926;6.320;2023-04-06T04:48:20;101583.75;;;2.03
58102;BMP280;52034;51.926;6.320;2023-04-06T04:49:25;101586.13;;;2.06
58102;BMP280;52034;51.926;6.320;2023-04-06T04:50:26;101585.00;;;2.09
58102;BMP280;52034;51.926;6.320;2023-04-06T04:51:30;101586.66;;;2.12
58102;BMP280;52034;51.926;6.320;2023-04-06T04:52:56;101582.63;;;2.06
58102;BMP280;52034;51.926;6.320;2023-04-06T04:53:59;101578.97;;;1.96
58102;BMP280;52034;51.926;6.320;2023-04-06T04:55:03;101580.78;;;2.01
58102;BMP280;52034;51.926;6.320;2023-04-06T04:56:04;101588.16;;;2.06
58102;BMP280;52034;51.926;6.320;2023-04-06T04:57:05;101579.84;;;2.06
58102;BMP280;52034;51.926;6.320;2023-04-06T04:58:17;101583.38;;;2.06
58102;BMP280;52034;51.926;6.320;2023-04-06T04:59:25;101586.28;;;2.08
58102;BMP280;52034;51.926;6.320;2023-04-06T05:00:31;101582.97;;;2.10
58102;BMP280;52034;51.926;6.320;2023-04-06T05:01:33;101572.66;;;2.03
58102;BMP280;52034;51.926;6.320;2023-04-06T05:02:35;101579.09;;;2.05
58102;BMP280;52034;51.926;6.320;2023-04-06T05:03:51;101580.97;;;2.03
58102;BMP280;52034;51.926;6.320;2023-04-06T05:04:51;101579.09;;;2.05
58102;BMP280;52034;51.926;6.320;2023-04-06T05:05:56;101578.34;;;2.12
58102;BMP280;52034;51.926;6.320;2023-04-06T05:08:04;101585.66;;;2.25
58102;BMP280;52034;51.926;6.320;2023-04-06T05:09:17;101582.34;;;2.26
58102;BMP280;52034;51.926;6.320;2023-04-06T05:10:17;101576.72;;;2.34
58102;BMP280;52034;51.926;6.320;2023-04-06T05:11:26;101590.53;;;2.41
58102;BMP280;52034;51.926;6.320;2023-04-06T05:12:32;101586.69;;;2.37
58102;BMP280;52034;51.926;6.320;2023-04-06T05:13:44;101584.09;;;2.39
58102;BMP280;52034;51.926;6.320;2023-04-06T05:14:50;101584.41;;;2.43
58102;BMP280;52034;51.926;6.320;2023-04-06T05:15:52;101589.19;;;2.50
58102;BMP280;52034;51.926;6.320;2023-04-06T05:17:05;101589.75;;;2.48
58102;BMP280;52034;51.926;6.320;2023-04-06T05:18:05;101585.50;;;2.47
58102;BMP280;52034;51.926;6.320;2023-04-06T05:19:09;101585.28;;;2.53
58102;BMP280;52034;51.926;6.320;2023-04-06T05:20:16;101583.44;;;2.55
58102;BMP280;52034;51.926;6.320;2023-04-06T05:21:21;101586.44;;;2.50
58102;BMP280;52034;51.926;6.320;2023-04-06T05:22:30;101565.19;;;2.45
58102;BMP280;52034;51.926;6.320;2023-04-06T05:23:36;101581.56;;;2.58
58102;BMP280;52034;51.926;6.320;2023-04-06T05:24:37;101580.66;;;2.55
58102;BMP280;52034;51.926;6.320;2023-04-06T05:25:40;101579.66;;;2.60
58102;BMP280;52034;51.926;6.320;2023-04-06T05:26:49;101586.84;;;2.63
58102;BMP280;52034;51.926;6.320;2023-04-06T05:27:55;101582.38;;;2.68
58102;BMP280;52034;51.926;6.320;2023-04-06T05:29:04;101574.44;;;2.64
58102;BMP280;52034;51.926;6.320;2023-04-06T05:30:08;101579.78;;;2.70
58102;BMP280;52034;51.926;6.320;2023-04-06T05:31:14;101585.69;;;2.74
58102;BMP280;52034;51.926;6.320;2023-04-06T05:32:20;101580.28;;;2.76
58102;BMP280;52034;51.926;6.320;2023-04-06T05:33:25;101576.78;;;2.75
58102;BMP280;52034;51.926;6.320;2023-04-06T05:34:52;101579.00;;;2.77
58102;BMP280;52034;51.926;6.320;2023-04-06T05:35:52;101569.56;;;2.80
58102;BMP280;52034;51.926;6.320;2023-04-06T05:36:53;101576.19;;;2.84
58102;BMP280;52034;51.926;6.320;2023-04-06T05:37:56;101575.44;;;2.84
58102;BMP280;52034;51.926;6.320;2023-04-06T05:38:59;101575.19;;;2.89
58102;BMP280;52034;51.926;6.320;2023-04-06T05:40:09;101575.19;;;2.89
58102;BMP280;52034;51.926;6.320;2023-04-06T05:41:10;101577.72;;;2.95
58102;BMP280;52034;51.926;6.320;2023-04-06T05:42:11;101581.00;;;3.01
58102;BMP280;52034;51.926;6.320;2023-04-06T05:43:25;101573.00;;;3.05
58102;BMP280;52034;51.926;6.320;2023-04-06T05:44:28;101581.69;;;3.09
58102;BMP280;52034;51.926;6.320;2023-04-06T05:45:37;101574.50;;;3.06
58102;BMP280;52034;51.926;6.320;2023-04-06T05:46:39;101578.66;;;3.15
58102;BMP280;52034;51.926;6.320;2023-04-06T05:47:45;101578.41;;;3.20
58102;BMP280;52034;51.926;6.320;2023-04-06T05:48:54;101578.56;;;3.22
58102;BMP280;52034;51.926;6.320;2023-04-06T05:49:59;101580.34;;;3.27
58102;BMP280;52034;51.926;6.320;2023-04-06T05:51:06;101569.25;;;3.27
58102;BMP280;52034;51.926;6.320;2023-04-06T05:52:14;101579.16;;;3.38
58102;BMP280;52034;51.926;6.320;2023-04-06T05:53:18;101584.47;;;3.43
58102;BMP280;52034;51.926;6.320;2023-04-06T05:54:26;101582.44;;;3.44
58102;BMP280;52034;51.926;6.320;2023-04-06T05:55:32;101580.50;;;3.46
58102;BMP280;52034;51.926;6.320;2023-04-06T05:56:46;101570.59;;;3.43
58102;BMP280;52034;51.926;6.320;2023-04-06T05:57:47;101572.00;;;3.44
58102;BMP280;52034;51.926;6.320;2023-04-06T05:58:50;101569.03;;;3.50
58102;BMP280;52034;51.926;6.320;2023-04-06T05:59:57;101570.97;;;3.57
58102;BMP280;52034;51.926;6.320;2023-04-06T06:01:02;101573.66;;;3.64
58102;BMP280;52034;51.926;6.320;2023-04-06T06:02:11;101570.72;;;3.62
58102;BMP280;52034;51.926;6.320;2023-04-06T06:03:15;101576.63;;;3.76
58102;BMP280;52034;51.926;6.320;2023-04-06T06:04:20;101543.34;;;3.59
58102;BMP280;52034;51.926;6.320;2023-04-06T06:05:22;101576.28;;;3.89
58102;BMP280;52034;51.926;6.320;2023-04-06T06:06:23;101567.25;;;3.88
58102;BMP280;52034;51.926;6.320;2023-04-06T06:07:40;101575.59;;;3.98
58102;BMP280;52034;51.926;6.320;2023-04-06T06:08:40;101567.59;;;4.02